sensor_id;sensor_type;location;lat;lon;timestamp;P1;P2;P0
62631;PMS5003;48703;51.248;-0.546;2023-05-21T00:00:24;10.07;8.99;
62631;PMS5003;48703;51.248;-0.546;2023-05-21T00:03:25;12.21;10.53;
62631;PMS5003;48703;51.248;-0.546;2023-05-21T00:06:27;15.00;12.77;
62631;PMS5003;48703;51.248;-0.546;2023-05-21T00:09:28;13.49;12.34;
62631;PMS5003;48703;51.248;-0.546;2023-05-21T00:12:30;10.36;10.00;
62631;PMS5003;48703;51.248;-0.546;2023-05-21T00:15:31;10.63;10.07;
62631;PMS5003;48703;51.248;-0.546;2023-05-21T00:18:33;9.74;9.19;
62631;PMS5003;48703;51.248;-0.546;2023-05-21T00:21:35;10.93;9.97;
62631;PMS5003;48703;51.248;-0.546;2023-05-21T00:24:36;9.51;9.33;
62631;PMS5003;48703;51.248;-0.546;2023-05-21T00:27:38;10.71;10.71;
62631;PMS5003;48703;51.248;-0.546;2023-05-21T00:30:40;12.67;11.84;
62631;PMS5003;48703;51.248;-0.546;2023-05-21T00:33:41;10.09;9.90;
62631;PMS5003;48703;51.248;-0.546;2023-05-21T00:36:43;10.16;9.90;
62631;PMS5003;48703;51.248;-0.546;2023-05-21T00:39:44;8.86;8.50;
62631;PMS5003;48703;51.248;-0.546;2023-05-21T00:42:46;9.31;9.06;
62631;PMS5003;48703;51.248;-0.546;2023-05-21T00:45:47;9.56;9.09;
62631;PMS5003;48703;51.248;-0.546;2023-05-21T00:48:49;8.17;8.17;
62631;PMS5003;48703;51.248;-0.546;2023-05-21T00:51:50;9.19;8.27;
62631;PMS5003;48703;51.248;-0.546;2023-05-21T00:54:52;9.56;9.56;
62631;PMS5003;48703;51.248;-0.546;2023-05-21T00:57:54;10.27;8.93;
62631;PMS5003;48703;51.248;-0.546;2023-05-21T01:00:55;8.10;8.10;
62631;PMS5003;48703;51.248;-0.546;2023-05-21T01:03:57;10.97;9.99;
62631;PMS5003;48703;51.248;-0.546;2023-05-21T01:06:59;8.43;8.39;
62631;PMS5003;48703;51.248;-0.546;2023-05-21T01:10:01;11.69;11.26;
62631;PMS5003;48703;51.248;-0.546;2023-05-21T01:13:02;9.60;8.66;
62631;PMS5003;48703;51.248;-0.546;2023-05-21T01:16:04;8.61;8.49;
62631;PMS5003;48703;51.248;-0.546;2023-05-21T01:19:05;12.09;10.39;
62631;PMS5003;48703;51.248;-0.546;2023-05-21T01:22:07;12.04;10.74;
62631;PMS5003;48703;51.248;-0.546;2023-05-21T01:25:09;10.60;9.81;
62631;PMS5003;48703;51.248;-0.546;2023-05-21T01:28:11;10.33;10.33;
62631;PMS5003;48703;51.248;-0.546;2023-05-21T01:31:15;10.69;9.79;
62631;PMS5003;48703;51.248;-0.546;2023-05-21T01:34:14;10.79;10.36;
62631;PMS5003;48703;51.248;-0.546;2023-05-21T01:37:16;9.24;8.86;
62631;PMS5003;48703;51.248;-0.546;2023-05-21T01:40:20;11.09;9.24;
62631;PMS5003;48703;51.248;-0.546;2023-05-21T01:43:19;12.37;11.51;
62631;PMS5003;48703;51.248;-0.546;2023-05-21T01:46:21;10.80;10.29;
62631;PMS5003;48703;51.248;-0.546;2023-05-21T01:49:22;9.79;9.44;
62631;PMS5003;48703;51.248;-0.546;2023-05-21T01:52:24;9.56;9.56;
62631;PMS5003;48703;51.248;-0.546;2023-05-21T01:55:25;11.00;10.33;
62631;PMS5003;48703;51.248;-0.546;2023-05-21T01:58:27;7.61;7.49;
62631;PMS5003;48703;51.248;-0.546;2023-05-21T02:01:29;13.40;12.44;
62631;PMS5003;48703;51.248;-0.546;2023-05-21T02:04:31;14.80;12.83;
62631;PMS5003;48703;51.248;-0.546;2023-05-21T02:07:33;12.14;11.27;
62631;PMS5003;48703;51.248;-0.546;2023-05-21T02:10:34;11.77;10.57;
62631;PMS5003;48703;51.248;-0.546;2023-05-21T02:13:36;8.94;8.76;
62631;PMS5003;48703;51.248;-0.546;2023-05-21T02:16:38;11.63;10.53;
62631;PMS5003;48703;51.248;-0.546;2023-05-21T02:19:39;10.74;8.90;
62631;PMS5003;48703;51.248;-0.546;2023-05-21T02:22:41;10.87;10.87;
62631;PMS5003;48703;51.248;-0.546;2023-05-21T02:25:42;10.84;10.67;
62631;PMS5003;48703;51.248;-0.546;2023-05-21T02:28:44;10.03;9.94;
62631;PMS5003;48703;51.248;-0.546;2023-05-21T02:31:45;12.29;11.59;
62631;PMS5003;48703;51.248;-0.546;2023-05-21T02:34:47;11.74;11.04;
62631;PMS5003;48703;51.248;-0.546;2023-05-21T02:37:49;12.03;11.13;
62631;PMS5003;48703;51.248;-0.546;2023-05-21T02:40:50;10.66;9.50;
62631;PMS5003;48703;51.248;-0.546;2023-05-21T02:43:52;11.97;10.00;
62631;PMS5003;48703;51.248;-0.546;2023-05-21T02:46:54;9.91;9.11;
62631;PMS5003;48703;51.248;-0.546;2023-05-21T02:49:57;9.17;9.17;
62631;PMS5003;48703;51.248;-0.546;2023-05-21T02:52:57;9.93;8.83;
62631;PMS5003;48703;51.248;-0.546;2023-05-21T02:55:58;10.01;10.01;
62631;PMS5003;48703;51.248;-0.546;2023-05-21T02:59:00;9.66;8.57;
62631;PMS5003;48703;51.248;-0.546;2023-05-21T03:02:01;11.84;9.72;
62631;PMS5003;48703;51.248;-0.546;2023-05-21T03:05:03;9.99;9.47;
62631;PMS5003;48703;51.248;-0.546;2023-05-21T03:08:05;10.13;9.10;
62631;PMS5003;48703;51.248;-0.546;2023-05-21T03:11:07;11.51;10.96;
62631;PMS5003;48703;51.248;-0.546;2023-05-21T03:14:08;11.45;10.97;
62631;PMS5003;48703;51.248;-0.546;2023-05-21T03:17:10;12.93;11.31;
62631;PMS5003;48703;51.248;-0.546;2023-05-21T03:20:11;14.87;11.94;
62631;PMS5003;48703;51.248;-0.546;2023-05-21T03:23:13;13.06;12.60;
62631;PMS5003;48703;51.248;-0.546;2023-05-21T03:26:14;11.17;10.74;
62631;PMS5003;48703;51.248;-0.546;2023-05-21T03:29:16;12.93;11.99;
62631;PMS5003;48703;51.248;-0.546;2023-05-21T03:32:17;13.60;11.91;
62631;PMS5003;48703;51.248;-0.546;2023-05-21T03:35:19;11.97;11.61;
62631;PMS5003;48703;51.248;-0.546;2023-05-21T03:38:21;14.54;14.36;
62631;PMS5003;48703;51.248;-0.546;2023-05-21T03:41:22;16.30;14.74;
62631;PMS5003;48703;51.248;-0.546;2023-05-21T03:44:24;15.30;13.50;
62631;PMS5003;48703;51.248;-0.546;2023-05-21T03:47:25;14.97;14.74;
62631;PMS5003;48703;51.248;-0.546;2023-05-21T03:50:27;18.13;14.57;
62631;PMS5003;48703;51.248;-0.546;2023-05-21T03:53:28;14.54;12.09;
62631;PMS5003;48703;51.248;-0.546;2023-05-21T03:56:30;15.20;15.11;
62631;PMS5003;48703;51.248;-0.546;2023-05-21T03:59:32;14.63;14.24;
62631;PMS5003;48703;51.248;-0.546;2023-05-21T04:02:33;13.81;13.27;
62631;PMS5003;48703;51.248;-0.546;2023-05-21T04:05:35;15.60;13.99;
62631;PMS5003;48703;51.248;-0.546;2023-05-21T04:08:37;12.76;11.34;
62631;PMS5003;48703;51.248;-0.546;2023-05-21T04:11:38;14.54;13.59;
62631;PMS5003;48703;51.248;-0.546;2023-05-21T04:14:40;13.49;12.49;
62631;PMS5003;48703;51.248;-0.546;2023-05-21T04:17:42;12.96;11.71;
62631;PMS5003;48703;51.248;-0.546;2023-05-21T04:20:43;17.01;14.67;
62631;PMS5003;48703;51.248;-0.546;2023-05-21T04:23:45;16.64;15.74;
62631;PMS5003;48703;51.248;-0.546;2023-05-21T04:26:46;14.69;13.36;
62631;PMS5003;48703;51.248;-0.546;2023-05-21T04:29:48;16.86;15.50;
62631;PMS5003;48703;51.248;-0.546;2023-05-21T04:32:50;16.54;15.86;
62631;PMS5003;48703;51.248;-0.546;2023-05-21T04:35:51;15.88;15.59;
62631;PMS5003;48703;51.248;-0.546;2023-05-21T04:38:53;18.23;15.76;
62631;PMS5003;48703;51.248;-0.546;2023-05-21T04:41:55;18.03;17.31;
62631;PMS5003;48703;51.248;-0.546;2023-05-21T04:44:56;17.83;16.06;
62631;PMS5003;48703;51.248;-0.546;2023-05-21T04:47:58;17.07;15.94;
62631;PMS5003;48703;51.248;-0.546;2023-05-21T04:51:00;17.81;16.33;
62631;PMS5003;48703;51.248;-0.546;2023-05-21T04:54:02;17.46;16.61;
62631;PMS5003;48703;51.248;-0.546;2023-05-21T04:57:03;21.86;19.59;
62631;PMS5003;48703;51.248;-0.546;2023-05-21T05:00:05;18.79;17.39;
62631;PMS5003;48703;51.248;-0.546;2023-05-21T05:03:06;18.83;16.49;
62631;PMS5003;48703;51.248;-0.546;2023-05-21T05:06:08;15.66;15.04;
62631;PMS5003;48703;51.248;-0.546;2023-05-21T05:09:09;13.31;13.17;
62631;PMS5003;48703;51.248;-0.546;2023-05-21T05:12:11;16.30;14.72;
62631;PMS5003;48703;51.248;-0.546;2023-05-21T05:15:12;15.23;13.68;
62631;PMS5003;48703;51.248;-0.546;2023-05-21T05:18:14;13.16;12.59;
62631;PMS5003;48703;51.248;-0.546;2023-05-21T05:21:16;14.29;12.67;
62631;PMS5003;48703;51.248;-0.546;2023-05-21T05:24:17;14.71;14.01;
62631;PMS5003;48703;51.248;-0.546;2023-05-21T05:27:19;16.26;14.50;
62631;PMS5003;48703;51.248;-0.546;2023-05-21T05:30:21;15.63;14.94;
62631;PMS5003;48703;51.248;-0.546;2023-05-21T05:33:23;14.87;13.81;
62631;PMS5003;48703;51.248;-0.546;2023-05-21T05:36:23;18.20;16.32;
62631;PMS5003;48703;51.248;-0.546;2023-05-21T05:39:25;14.91;14.43;
62631;PMS5003;48703;51.248;-0.546;2023-05-21T05:42:26;14.91;14.91;
62631;PMS5003;48703;51.248;-0.546;2023-05-21T05:45:27;15.71;13.78;
62631;PMS5003;48703;51.248;-0.546;2023-05-21T05:48:29;16.17;15.46;
62631;PMS5003;48703;51.248;-0.546;2023-05-21T05:51:30;17.60;15.19;
62631;PMS5003;48703;51.248;-0.546;2023-05-21T05:54:32;15.59;14.46;
62631;PMS5003;48703;51.248;-0.546;2023-05-21T05:57:34;14.73;14.20;
62631;PMS5003;48703;51.248;-0.546;2023-05-21T06:00:36;15.87;15.51;
62631;PMS5003;48703;51.248;-0.546;2023-05-21T06:03:37;15.04;14.31;
62631;PMS5003;48703;51.248;-0.546;2023-05-21T12:48:53;8.39;7.90;
62631;PMS5003;48703;51.248;-0.546;2023-05-21T12:51:55;8.83;8.04;
62631;PMS5003;48703;51.248;-0.546;2023-05-21T12:54:56;11.03;9.93;
62631;PMS5003;48703;51.248;-0.546;2023-05-21T12:58:00;9.93;8.51;
62631;PMS5003;48703;51.248;-0.546;2023-05-21T13:00:59;7.53;6.97;
62631;PMS5003;48703;51.248;-0.546;2023-05-21T13:04:00;8.00;7.49;
62631;PMS5003;48703;51.248;-0.546;2023-05-21T13:07:02;8.10;7.19;
62631;PMS5003;48703;51.248;-0.546;2023-05-21T13:10:04;8.40;8.19;
62631;PMS5003;48703;51.248;-0.546;2023-05-21T13:13:04;10.54;9.26;
62631;PMS5003;48703;51.248;-0.546;2023-05-21T13:16:06;8.51;8.13;
62631;PMS5003;48703;51.248;-0.546;2023-05-21T13:19:07;7.49;7.34;
62631;PMS5003;48703;51.248;-0.546;2023-05-21T13:22:09;7.61;6.96;
62631;PMS5003;48703;51.248;-0.546;2023-05-21T13:25:11;8.34;7.69;
62631;PMS5003;48703;51.248;-0.546;2023-05-21T13:28:12;8.50;8.04;
62631;PMS5003;48703;51.248;-0.546;2023-05-21T13:31:13;9.46;8.79;
62631;PMS5003;48703;51.248;-0.546;2023-05-21T13:34:15;9.10;8.44;
62631;PMS5003;48703;51.248;-0.546;2023-05-21T13:37:16;8.74;8.19;
62631;PMS5003;48703;51.248;-0.546;2023-05-21T13:40:18;8.07;7.09;
62631;PMS5003;48703;51.248;-0.546;2023-05-21T13:43:19;9.79;7.64;
62631;PMS5003;48703;51.248;-0.546;2023-05-21T13:46:21;7.30;7.30;
62631;PMS5003;48703;51.248;-0.546;2023-05-21T13:49:22;7.91;7.59;
62631;PMS5003;48703;51.248;-0.546;2023-05-21T13:52:23;10.23;8.60;
62631;PMS5003;48703;51.248;-0.546;2023-05-21T13:55:25;7.61;6.54;
62631;PMS5003;48703;51.248;-0.546;2023-05-21T13:58:26;9.56;8.91;
62631;PMS5003;48703;51.248;-0.546;2023-05-21T14:01:28;7.44;6.70;
62631;PMS5003;48703;51.248;-0.546;2023-05-21T14:04:29;8.97;7.49;
62631;PMS5003;48703;51.248;-0.546;2023-05-21T14:07:31;9.41;8.60;
62631;PMS5003;48703;51.248;-0.546;2023-05-21T14:10:32;8.76;8.20;
62631;PMS5003;48703;51.248;-0.546;2023-05-21T14:13:33;9.84;8.09;
62631;PMS5003;48703;51.248;-0.546;2023-05-21T14:16:35;8.66;7.67;
62631;PMS5003;48703;51.248;-0.546;2023-05-21T14:19:36;8.81;7.84;
62631;PMS5003;48703;51.248;-0.546;2023-05-21T14:22:38;9.47;8.31;
62631;PMS5003;48703;51.248;-0.546;2023-05-21T14:25:40;10.23;9.71;
62631;PMS5003;48703;51.248;-0.546;2023-05-21T14:28:41;6.99;6.53;
62631;PMS5003;48703;51.248;-0.546;2023-05-21T14:31:42;8.07;6.81;
62631;PMS5003;48703;51.248;-0.546;2023-05-21T14:34:44;8.50;7.66;
62631;PMS5003;48703;51.248;-0.546;2023-05-21T14:37:45;9.21;8.56;
62631;PMS5003;48703;51.248;-0.546;2023-05-21T14:40:47;8.57;7.43;
62631;PMS5003;48703;51.248;-0.546;2023-05-21T14:43:48;8.16;7.34;
62631;PMS5003;48703;51.248;-0.546;2023-05-21T14:46:50;9.70;7.57;
62631;PMS5003;48703;51.248;-0.546;2023-05-21T14:49:51;7.07;6.84;
62631;PMS5003;48703;51.248;-0.546;2023-05-21T14:52:52;6.96;6.19;
62631;PMS5003;48703;51.248;-0.546;2023-05-21T14:55:54;7.46;6.64;
62631;PMS5003;48703;51.248;-0.546;2023-05-21T14:58:55;7.83;7.61;
62631;PMS5003;48703;51.248;-0.546;2023-05-21T15:01:57;7.76;7.74;
62631;PMS5003;48703;51.248;-0.546;2023-05-21T15:04:58;7.20;6.84;
62631;PMS5003;48703;51.248;-0.546;2023-05-21T15:08:00;7.79;7.53;
62631;PMS5003;48703;51.248;-0.546;2023-05-21T15:11:01;9.80;8.51;
62631;PMS5003;48703;51.248;-0.546;2023-05-21T15:14:02;7.91;7.51;
62631;PMS5003;48703;51.248;-0.546;2023-05-21T15:17:04;7.11;5.93;
62631;PMS5003;48703;51.248;-0.546;2023-05-21T15:20:06;6.93;5.70;
62631;PMS5003;48703;51.248;-0.546;2023-05-21T15:23:07;7.10;6.24;
62631;PMS5003;48703;51.248;-0.546;2023-05-21T15:26:08;6.44;5.84;
62631;PMS5003;48703;51.248;-0.546;2023-05-21T15:29:10;8.31;7.46;
62631;PMS5003;48703;51.248;-0.546;2023-05-21T15:32:11;7.67;7.06;
62631;PMS5003;48703;51.248;-0.546;2023-05-21T15:35:13;7.57;6.54;
62631;PMS5003;48703;51.248;-0.546;2023-05-21T15:38:14;7.56;6.91;
62631;PMS5003;48703;51.248;-0.546;2023-05-21T15:41:16;6.37;6.37;
62631;PMS5003;48703;51.248;-0.546;2023-05-21T15:44:17;8.33;6.51;
62631;PMS5003;48703;51.248;-0.546;2023-05-21T15:47:19;8.29;7.66;
62631;PMS5003;48703;51.248;-0.546;2023-05-21T15:50:20;6.73;6.30;
62631;PMS5003;48703;51.248;-0.546;2023-05-21T15:53:21;8.01;7.94;
62631;PMS5003;48703;51.248;-0.546;2023-05-21T15:56:23;7.04;6.44;
62631;PMS5003;48703;51.248;-0.546;2023-05-21T15:59:24;7.37;6.77;
62631;PMS5003;48703;51.248;-0.546;2023-05-21T16:02:26;7.30;6.27;
62631;PMS5003;48703;51.248;-0.546;2023-05-21T16:05:27;7.13;6.46;
62631;PMS5003;48703;51.248;-0.546;2023-05-21T16:08:29;7.67;7.11;
62631;PMS5003;48703;51.248;-0.546;2023-05-21T16:11:30;8.34;7.64;
62631;PMS5003;48703;51.248;-0.546;2023-05-21T16:14:32;6.47;6.39;
62631;PMS5003;48703;51.248;-0.546;2023-05-21T16:17:33;8.04;6.74;
62631;PMS5003;48703;51.248;-0.546;2023-05-21T16:20:35;8.76;8.27;
62631;PMS5003;48703;51.248;-0.546;2023-05-21T16:23:35;10.93;10.46;
62631;PMS5003;48703;51.248;-0.546;2023-05-21T16:26:37;11.13;8.84;
62631;PMS5003;48703;51.248;-0.546;2023-05-21T16:29:38;7.91;7.44;
62631;PMS5003;48703;51.248;-0.546;2023-05-21T16:32:40;7.00;6.83;
62631;PMS5003;48703;51.248;-0.546;2023-05-21T16:35:41;7.69;7.69;
62631;PMS5003;48703;51.248;-0.546;2023-05-21T16:38:43;7.76;7.76;
62631;PMS5003;48703;51.248;-0.546;2023-05-21T16:41:44;7.59;7.07;
62631;PMS5003;48703;51.248;-0.546;2023-05-21T16:44:46;7.34;7.17;
62631;PMS5003;48703;51.248;-0.546;2023-05-21T16:47:47;10.89;9.24;
62631;PMS5003;48703;51.248;-0.546;2023-05-21T16:50:49;8.40;8.40;
62631;PMS5003;48703;51.248;-0.546;2023-05-21T16:53:50;10.16;9.59;
62631;PMS5003;48703;51.248;-0.546;2023-05-21T16:56:51;8.10;8.10;
62631;PMS5003;48703;51.248;-0.546;2023-05-21T16:59:53;8.94;8.46;
62631;PMS5003;48703;51.248;-0.546;2023-05-21T17:02:54;8.59;7.97;
62631;PMS5003;48703;51.248;-0.546;2023-05-21T17:05:56;10.60;8.37;
62631;PMS5003;48703;51.248;-0.546;2023-05-21T17:08:57;8.81;8.36;
62631;PMS5003;48703;51.248;-0.546;2023-05-21T17:11:59;6.97;6.97;
62631;PMS5003;48703;51.248;-0.546;2023-05-21T17:15:00;10.06;9.26;
62631;PMS5003;48703;51.248;-0.546;2023-05-21T17:18:02;7.70;6.93;
62631;PMS5003;48703;51.248;-0.546;2023-05-21T17:21:03;9.14;8.40;
62631;PMS5003;48703;51.248;-0.546;2023-05-21T17:24:05;8.69;7.64;
62631;PMS5003;48703;51.248;-0.546;2023-05-21T17:27:06;9.44;7.97;
62631;PMS5003;48703;51.248;-0.546;2023-05-21T17:30:07;9.32;8.59;
62631;PMS5003;48703;51.248;-0.546;2023-05-21T17:33:08;8.31;6.70;
62631;PMS5003;48703;51.248;-0.546;2023-05-21T17:36:10;10.61;8.83;
62631;PMS5003;48703;51.248;-0.546;2023-05-21T17:39:11;11.11;8.83;
62631;PMS5003;48703;51.248;-0.546;2023-05-21T17:42:13;9.76;8.96;
62631;PMS5003;48703;51.248;-0.546;2023-05-21T17:45:14;8.34;7.70;
62631;PMS5003;48703;51.248;-0.546;2023-05-21T17:48:15;9.94;8.86;
62631;PMS5003;48703;51.248;-0.546;2023-05-21T17:51:17;8.83;7.96;
62631;PMS5003;48703;51.248;-0.546;2023-05-21T17:54:18;7.10;7.10;
62631;PMS5003;48703;51.248;-0.546;2023-05-21T17:57:19;8.07;7.51;
62631;PMS5003;48703;51.248;-0.546;2023-05-21T18:00:21;9.61;8.40;
62631;PMS5003;48703;51.248;-0.546;2023-05-21T18:03:22;9.69;8.40;
62631;PMS5003;48703;51.248;-0.546;2023-05-21T18:06:24;8.69;8.17;
62631;PMS5003;48703;51.248;-0.546;2023-05-21T18:09:25;6.73;6.51;
62631;PMS5003;48703;51.248;-0.546;2023-05-21T18:12:27;9.04;8.81;
62631;PMS5003;48703;51.248;-0.546;2023-05-21T18:15:28;9.77;7.77;
62631;PMS5003;48703;51.248;-0.546;2023-05-21T18:18:30;9.59;7.96;
62631;PMS5003;48703;51.248;-0.546;2023-05-21T18:21:32;7.89;6.39;
62631;PMS5003;48703;51.248;-0.546;2023-05-21T18:24:33;8.99;7.40;
62631;PMS5003;48703;51.248;-0.546;2023-05-21T18:27:34;8.17;6.96;
62631;PMS5003;48703;51.248;-0.546;2023-05-21T18:30:36;8.44;7.89;
62631;PMS5003;48703;51.248;-0.546;2023-05-21T18:33:37;8.13;6.93;
62631;PMS5003;48703;51.248;-0.546;2023-05-21T18:36:39;7.90;7.37;
62631;PMS5003;48703;51.248;-0.546;2023-05-21T18:39:41;8.59;7.81;
62631;PMS5003;48703;51.248;-0.546;2023-05-21T18:42:42;8.63;8.04;
62631;PMS5003;48703;51.248;-0.546;2023-05-21T18:45:43;8.11;7.64;
62631;PMS5003;48703;51.248;-0.546;2023-05-21T18:48:45;7.69;7.47;
62631;PMS5003;48703;51.248;-0.546;2023-05-21T18:51:46;7.37;7.13;
62631;PMS5003;48703;51.248;-0.546;2023-05-21T18:54:48;10.49;8.40;
62631;PMS5003;48703;51.248;-0.546;2023-05-21T18:57:49;7.57;7.57;
62631;PMS5003;48703;51.248;-0.546;2023-05-21T19:00:51;9.37;8.31;
62631;PMS5003;48703;51.248;-0.546;2023-05-21T19:03:52;9.71;8.59;
62631;PMS5003;48703;51.248;-0.546;2023-05-21T19:06:54;10.43;9.04;
62631;PMS5003;48703;51.248;-0.546;2023-05-21T19:09:55;10.46;9.30;
62631;PMS5003;48703;51.248;-0.546;2023-05-21T19:12:57;8.44;7.26;
62631;PMS5003;48703;51.248;-0.546;2023-05-21T19:15:58;9.23;8.29;
62631;PMS5003;48703;51.248;-0.546;2023-05-21T19:19:00;8.83;8.61;
62631;PMS5003;48703;51.248;-0.546;2023-05-21T19:22:01;8.64;8.43;
62631;PMS5003;48703;51.248;-0.546;2023-05-21T19:25:03;9.61;9.27;
62631;PMS5003;48703;51.248;-0.546;2023-05-21T19:28:04;9.11;9.03;
62631;PMS5003;48703;51.248;-0.546;2023-05-21T19:31:05;10.04;9.03;
62631;PMS5003;48703;51.248;-0.546;2023-05-21T19:34:07;8.26;7.74;
62631;PMS5003;48703;51.248;-0.546;2023-05-21T19:37:08;9.75;8.83;
62631;PMS5003;48703;51.248;-0.546;2023-05-21T19:40:10;8.34;7.57;
62631;PMS5003;48703;51.248;-0.546;2023-05-21T19:43:11;7.77;7.06;
62631;PMS5003;48703;51.248;-0.546;2023-05-21T19:46:13;7.87;7.06;
62631;PMS5003;48703;51.248;-0.546;2023-05-21T19:49:14;9.19;7.73;
62631;PMS5003;48703;51.248;-0.546;2023-05-21T19:52:16;9.33;7.37;
62631;PMS5003;48703;51.248;-0.546;2023-05-21T19:55:18;7.37;7.20;
62631;PMS5003;48703;51.248;-0.546;2023-05-21T19:58:19;7.56;6.99;
62631;PMS5003;48703;51.248;-0.546;2023-05-21T20:01:21;7.46;6.49;
62631;PMS5003;48703;51.248;-0.546;2023-05-21T20:04:22;5.41;4.96;
62631;PMS5003;48703;51.248;-0.546;2023-05-21T20:07:24;6.49;5.97;
62631;PMS5003;48703;51.248;-0.546;2023-05-21T20:10:25;5.94;5.43;
62631;PMS5003;48703;51.248;-0.546;2023-05-21T20:13:27;6.03;4.50;
62631;PMS5003;48703;51.248;-0.546;2023-05-21T20:16:28;7.44;6.24;
62631;PMS5003;48703;51.248;-0.546;2023-05-21T20:19:30;5.07;5.07;
62631;PMS5003;48703;51.248;-0.546;2023-05-21T20:22:31;4.70;4.66;
62631;PMS5003;48703;51.248;-0.546;2023-05-21T20:25:33;5.56;5.47;
62631;PMS5003;48703;51.248;-0.546;2023-05-21T20:28:34;7.57;5.34;
62631;PMS5003;48703;51.248;-0.546;2023-05-21T20:31:36;5.10;4.81;
62631;PMS5003;48703;51.248;-0.546;2023-05-21T20:34:37;5.90;4.96;
62631;PMS5003;48703;51.248;-0.546;2023-05-21T20:37:39;5.00;4.33;
62631;PMS5003;48703;51.248;-0.546;2023-05-21T20:40:40;6.70;5.54;
62631;PMS5003;48703;51.248;-0.546;2023-05-21T20:43:41;5.87;5.27;
62631;PMS5003;48703;51.248;-0.546;2023-05-21T20:46:43;5.69;5.09;
62631;PMS5003;48703;51.248;-0.546;2023-05-21T20:49:45;7.54;5.63;
62631;PMS5003;48703;51.248;-0.546;2023-05-21T20:52:46;6.36;5.31;
62631;PMS5003;48703;51.248;-0.546;2023-05-21T20:55:48;6.47;6.01;
62631;PMS5003;48703;51.248;-0.546;2023-05-21T20:58:49;6.19;5.97;
62631;PMS5003;48703;51.248;-0.546;2023-05-21T21:01:51;5.44;4.83;
62631;PMS5003;48703;51.248;-0.546;2023-05-21T21:04:52;6.01;5.41;
62631;PMS5003;48703;51.248;-0.546;2023-05-21T21:07:54;6.91;6.27;
62631;PMS5003;48703;51.248;-0.546;2023-05-21T21:10:56;5.66;4.50;
62631;PMS5003;48703;51.248;-0.546;2023-05-21T21:13:57;7.26;5.67;
62631;PMS5003;48703;51.248;-0.546;2023-05-21T21:16:59;5.17;4.83;
62631;PMS5003;48703;51.248;-0.546;2023-05-21T21:20:00;5.46;5.33;
62631;PMS5003;48703;51.248;-0.546;2023-05-21T21:23:02;5.51;5.51;
62631;PMS5003;48703;51.248;-0.546;2023-05-21T21:26:03;6.37;6.23;
62631;PMS5003;48703;51.248;-0.546;2023-05-21T21:29:05;7.53;6.69;
62631;PMS5003;48703;51.248;-0.546;2023-05-21T21:32:07;7.41;6.16;
62631;PMS5003;48703;51.248;-0.546;2023-05-21T21:35:08;6.79;6.53;
62631;PMS5003;48703;51.248;-0.546;2023-05-21T21:38:09;7.86;7.65;
62631;PMS5003;48703;51.248;-0.546;2023-05-21T21:41:11;6.67;6.67;
62631;PMS5003;48703;51.248;-0.546;2023-05-21T21:44:13;7.46;5.61;
62631;PMS5003;48703;51.248;-0.546;2023-05-21T21:47:14;5.23;5.03;
62631;PMS5003;48703;51.248;-0.546;2023-05-21T21:50:16;6.83;5.94;
62631;PMS5003;48703;51.248;-0.546;2023-05-21T21:53:17;7.06;5.97;
62631;PMS5003;48703;51.248;-0.546;2023-05-21T21:56:19;5.43;5.07;
62631;PMS5003;48703;51.248;-0.546;2023-05-21T21:59:21;6.16;5.10;
62631;PMS5003;48703;51.248;-0.546;2023-05-21T22:02:22;5.31;5.31;
62631;PMS5003;48703;51.248;-0.546;2023-05-21T22:05:24;6.24;5.66;
62631;PMS5003;48703;51.248;-0.546;2023-05-21T22:08:25;6.33;5.99;
62631;PMS5003;48703;51.248;-0.546;2023-05-21T22:11:27;6.20;6.20;
62631;PMS5003;48703;51.248;-0.546;2023-05-21T22:14:29;5.46;4.90;
62631;PMS5003;48703;51.248;-0.546;2023-05-21T22:17:30;5.91;5.69;
62631;PMS5003;48703;51.248;-0.546;2023-05-21T22:20:32;6.07;6.07;
62631;PMS5003;48703;51.248;-0.546;2023-05-21T22:23:33;5.54;5.07;
62631;PMS5003;48703;51.248;-0.546;2023-05-21T22:26:35;5.09;5.09;
62631;PMS5003;48703;51.248;-0.546;2023-05-21T22:29:37;5.99;5.47;
62631;PMS5003;48703;51.248;-0.546;2023-05-21T22:32:38;6.49;5.97;
62631;PMS5003;48703;51.248;-0.546;2023-05-21T22:35:39;5.70;5.14;
62631;PMS5003;48703;51.248;-0.546;2023-05-21T22:38:41;5.73;5.67;
62631;PMS5003;48703;51.248;-0.546;2023-05-21T22:41:43;5.99;5.66;
62631;PMS5003;48703;51.248;-0.546;2023-05-21T23:13:01;6.30;6.30;
62631;PMS5003;48703;51.248;-0.546;2023-05-21T23:16:03;7.53;5.29;
62631;PMS5003;48703;51.248;-0.546;2023-05-21T23:19:04;7.20;7.01;
62631;PMS5003;48703;51.248;-0.546;2023-05-21T23:22:05;6.59;6.41;
62631;PMS5003;48703;51.248;-0.546;2023-05-21T23:25:07;8.44;7.54;
62631;PMS5003;48703;51.248;-0.546;2023-05-21T23:28:09;7.26;6.59;
62631;PMS5003;48703;51.248;-0.546;2023-05-21T23:31:10;5.59;5.59;
62631;PMS5003;48703;51.248;-0.546;2023-05-21T23:34:12;7.57;6.71;
62631;PMS5003;48703;51.248;-0.546;2023-05-21T23:37:14;7.56;5.93;
62631;PMS5003;48703;51.248;-0.546;2023-05-21T23:40:15;7.71;7.17;
62631;PMS5003;48703;51.248;-0.546;2023-05-21T23:43:17;8.96;7.51;
62631;PMS5003;48703;51.248;-0.546;2023-05-21T23:46:18;8.41;7.43;
62631;PMS5003;48703;51.248;-0.546;2023-05-21T23:49:20;9.00;7.60;
62631;PMS5003;48703;51.248;-0.546;2023-05-21T23:52:21;8.74;8.30;
62631;PMS5003;48703;51.248;-0.546;2023-05-21T23:55:23;9.79;8.07;
62631;PMS5003;48703;51.248;-0.546;2023-05-21T23:58:24;7.94;7.94;
